sensor_id;sensor_type;location;lat;lon;timestamp;pressure;altitude;pressure_sealevel;temperature;humidity
25420;BME280;13354;48.174;11.566;2023-05-01T00:01:04;95580.50;;;11.81;58.52
25420;BME280;13354;48.174;11.566;2023-05-01T00:03:30;95581.75;;;11.72;58.82
25420;BME280;13354;48.174;11.566;2023-05-01T00:05:59;95577.47;;;11.71;59.60
25420;BME280;13354;48.174;11.566;2023-05-01T00:08:25;95567.06;;;11.76;59.27
25420;BME280;13354;48.174;11.566;2023-05-01T00:10:50;95563.75;;;11.61;59.22
25420;BME280;13354;48.174;11.566;2023-05-01T00:13:16;95569.84;;;11.55;59.98
25420;BME280;13354;48.174;11.566;2023-05-01T00:15:45;95560.72;;;11.64;59.41
25420;BME280;13354;48.174;11.566;2023-05-01T00:18:11;95555.81;;;11.61;59.51
25420;BME280;13354;48.174;11.566;2023-05-01T00:20:36;95551.72;;;11.58;59.51
25420;BME280;13354;48.174;11.566;2023-05-01T00:23:01;95554.78;;;11.49;60.22
25420;BME280;13354;48.174;11.566;2023-05-01T00:25:27;95550.88;;;11.45;60.56
25420;BME280;13354;48.174;11.566;2023-05-01T00:27:53;95546.41;;;11.52;59.73
25420;BME280;13354;48.174;11.566;2023-05-01T00:30:18;95548.22;;;11.45;60.39
25420;BME280;13354;48.174;11.566;2023-05-01T00:32:44;95547.41;;;11.44;60.06
25420;BME280;13354;48.174;11.566;2023-05-01T00:35:09;95546.00;;;11.42;60.14
25420;BME280;13354;48.174;11.566;2023-05-01T00:37:34;95537.41;;;11.40;60.33
25420;BME280;13354;48.174;11.566;2023-05-01T00:39:59;95536.41;;;11.47;60.63
25420;BME280;13354;48.174;11.566;2023-05-01T00:42:25;95533.31;;;11.37;60.97
25420;BME280;13354;48.174;11.566;2023-05-01T00:44:50;95533.50;;;11.29;60.98
25420;BME280;13354;48.174;11.566;2023-05-01T00:47:15;95542.25;;;11.23;61.10
25420;BME280;13354;48.174;11.566;2023-05-01T00:49:41;95533.28;;;11.24;61.49
25420;BME280;13354;48.174;11.566;2023-05-01T00:52:06;95529.19;;;11.15;61.71
25420;BME280;13354;48.174;11.566;2023-05-01T00:54:33;95530.81;;;11.09;61.57
25420;BME280;13354;48.174;11.566;2023-05-01T00:56:59;95533.03;;;11.05;62.13
25420;BME280;13354;48.174;11.566;2023-05-01T00:59:24;95531.41;;;11.11;61.89
25420;BME280;13354;48.174;11.566;2023-05-01T01:01:50;95527.13;;;11.10;61.83
25420;BME280;13354;48.174;11.566;2023-05-01T01:04:16;95518.38;;;11.09;61.93
25420;BME280;13354;48.174;11.566;2023-05-01T01:06:45;95519.16;;;11.03;62.05
25420;BME280;13354;48.174;11.566;2023-05-01T01:09:18;95524.88;;;11.07;61.91
25420;BME280;13354;48.174;11.566;2023-05-01T01:11:56;95525.66;;;11.01;62.52
25420;BME280;13354;48.174;11.566;2023-05-01T01:17:16;95519.72;;;10.92;62.65
25420;BME280;13354;48.174;11.566;2023-05-01T01:22:28;95518.66;;;10.80;63.75
25420;BME280;13354;48.174;11.566;2023-05-01T01:30:10;95519.66;;;10.72;64.22
25420;BME280;13354;48.174;11.566;2023-05-01T01:32:54;95519.22;;;10.69;64.69
25420;BME280;13354;48.174;11.566;2023-05-01T01:35:23;95520.63;;;10.64;64.89
25420;BME280;13354;48.174;11.566;2023-05-01T01:38:36;95517.72;;;10.59;64.89
25420;BME280;13354;48.174;11.566;2023-05-01T01:43:19;95508.56;;;10.55;64.69
25420;BME280;13354;48.174;11.566;2023-05-01T01:45:46;95507.34;;;10.58;64.27
25420;BME280;13354;48.174;11.566;2023-05-01T01:48:14;95498.97;;;10.54;64.38
25420;BME280;13354;48.174;11.566;2023-05-01T01:50:41;95498.13;;;10.47;64.68
25420;BME280;13354;48.174;11.566;2023-05-01T01:53:08;95499.16;;;10.46;64.51
25420;BME280;13354;48.174;11.566;2023-05-01T01:55:34;95496.25;;;10.41;64.69
25420;BME280;13354;48.174;11.566;2023-05-01T01:58:00;95492.78;;;10.40;64.85
25420;BME280;13354;48.174;11.566;2023-05-01T02:00:27;95493.38;;;10.36;65.12
25420;BME280;13354;48.174;11.566;2023-05-01T02:02:53;95491.34;;;10.38;64.84
25420;BME280;13354;48.174;11.566;2023-05-01T02:05:19;95488.88;;;10.30;64.89
25420;BME280;13354;48.174;11.566;2023-05-01T02:07:46;95482.56;;;10.31;65.17
25420;BME280;13354;48.174;11.566;2023-05-01T02:10:12;95478.50;;;10.28;65.13
25420;BME280;13354;48.174;11.566;2023-05-01T02:12:39;95474.81;;;10.29;65.06
25420;BME280;13354;48.174;11.566;2023-05-01T02:15:05;95471.78;;;10.32;65.20
25420;BME280;13354;48.174;11.566;2023-05-01T02:17:32;95471.75;;;10.26;65.25
25420;BME280;13354;48.174;11.566;2023-05-01T02:19:58;95474.53;;;10.18;65.50
25420;BME280;13354;48.174;11.566;2023-05-01T02:22:24;95471.50;;;10.21;65.61
25420;BME280;13354;48.174;11.566;2023-05-01T02:24:52;95467.78;;;10.15;65.92
25420;BME280;13354;48.174;11.566;2023-05-01T02:27:37;95467.56;;;10.10;65.70
25420;BME280;13354;48.174;11.566;2023-05-01T02:30:04;95464.47;;;10.06;66.12
25420;BME280;13354;48.174;11.566;2023-05-01T02:32:30;95469.81;;;10.13;66.26
25420;BME280;13354;48.174;11.566;2023-05-01T02:34:56;95461.03;;;10.06;66.88
25420;BME280;13354;48.174;11.566;2023-05-01T02:37:21;95463.63;;;9.99;66.45
25420;BME280;13354;48.174;11.566;2023-05-01T02:39:47;95460.72;;;9.94;66.78
25420;BME280;13354;48.174;11.566;2023-05-01T02:42:12;95455.03;;;9.90;67.30
25420;BME280;13354;48.174;11.566;2023-05-01T02:45:01;95452.63;;;9.96;67.32
25420;BME280;13354;48.174;11.566;2023-05-01T02:47:25;95446.25;;;9.90;67.39
25420;BME280;13354;48.174;11.566;2023-05-01T02:49:51;95441.59;;;9.92;67.31
25420;BME280;13354;48.174;11.566;2023-05-01T02:52:18;95441.41;;;9.93;67.59
25420;BME280;13354;48.174;11.566;2023-05-01T02:54:43;95439.97;;;9.91;67.81
25420;BME280;13354;48.174;11.566;2023-05-01T02:57:09;95441.81;;;9.90;67.51
25420;BME280;13354;48.174;11.566;2023-05-01T02:59:35;95439.16;;;9.90;67.69
25420;BME280;13354;48.174;11.566;2023-05-01T03:02:00;95441.81;;;9.90;67.53
25420;BME280;13354;48.174;11.566;2023-05-01T03:04:25;95435.13;;;9.95;67.42
25420;BME280;13354;48.174;11.566;2023-05-01T03:06:51;95441.97;;;9.89;67.35
25420;BME280;13354;48.174;11.566;2023-05-01T03:09:16;95443.81;;;9.88;67.83
25420;BME280;13354;48.174;11.566;2023-05-01T03:11:41;95438.91;;;9.85;67.61
25420;BME280;13354;48.174;11.566;2023-05-01T03:14:07;95437.47;;;9.83;68.13
25420;BME280;13354;48.174;11.566;2023-05-01T03:16:32;95447.44;;;9.81;68.79
25420;BME280;13354;48.174;11.566;2023-05-01T03:18:57;95443.75;;;9.82;68.84
25420;BME280;13354;48.174;11.566;2023-05-01T03:21:23;95444.19;;;9.85;68.78
25420;BME280;13354;48.174;11.566;2023-05-01T03:23:48;95438.47;;;9.82;69.05
25420;BME280;13354;48.174;11.566;2023-05-01T03:26:13;95438.19;;;9.70;69.31
25420;BME280;13354;48.174;11.566;2023-05-01T03:28:39;95430.50;;;9.75;69.61
25420;BME280;13354;48.174;11.566;2023-05-01T03:31:04;95436.78;;;9.74;69.25
25420;BME280;13354;48.174;11.566;2023-05-01T03:33:29;95434.97;;;9.75;69.01
25420;BME280;13354;48.174;11.566;2023-05-01T03:36:02;95435.16;;;9.73;68.74
25420;BME280;13354;48.174;11.566;2023-05-01T03:38:28;95439.00;;;9.71;68.96
25420;BME280;13354;48.174;11.566;2023-05-01T03:40:54;95431.22;;;9.62;69.37
25420;BME280;13354;48.174;11.566;2023-05-01T03:43:19;95430.41;;;9.62;69.29
25420;BME280;13354;48.174;11.566;2023-05-01T03:45:44;95433.88;;;9.62;69.23
25420;BME280;13354;48.174;11.566;2023-05-01T03:48:10;95432.31;;;9.75;68.83
25420;BME280;13354;48.174;11.566;2023-05-01T03:50:35;95431.88;;;9.71;68.83
25420;BME280;13354;48.174;11.566;2023-05-01T03:53:00;95428.88;;;9.74;69.03
25420;BME280;13354;48.174;11.566;2023-05-01T03:55:26;95432.91;;;9.70;69.62
25420;BME280;13354;48.174;11.566;2023-05-01T03:57:51;95429.44;;;9.70;69.70
25420;BME280;13354;48.174;11.566;2023-05-01T04:00:16;95431.34;;;9.76;69.98
25420;BME280;13354;48.174;11.566;2023-05-01T04:02:42;95430.50;;;9.75;70.07
25420;BME280;13354;48.174;11.566;2023-05-01T04:05:07;95428.63;;;9.69;70.81
25420;BME280;13354;48.174;11.566;2023-05-01T04:07:33;95429.16;;;9.58;71.04
25420;BME280;13354;48.174;11.566;2023-05-01T04:09:58;95428.97;;;9.59;70.94
25420;BME280;13354;48.174;11.566;2023-05-01T04:12:23;95420.81;;;9.54;70.89
25420;BME280;13354;48.174;11.566;2023-05-01T04:14:48;95421.34;;;9.50;70.99
25420;BME280;13354;48.174;11.566;2023-05-01T04:17:14;95426.19;;;9.46;70.96
25420;BME280;13354;48.174;11.566;2023-05-01T04:19:39;95420.00;;;9.54;70.49
25420;BME280;13354;48.174;11.566;2023-05-01T04:22:05;95420.59;;;9.56;70.71
25420;BME280;13354;48.174;11.566;2023-05-01T04:24:30;95421.25;;;9.58;70.92
25420;BME280;13354;48.174;11.566;2023-05-01T04:26:55;95419.16;;;9.53;70.70
25420;BME280;13354;48.174;11.566;2023-05-01T04:29:22;95417.53;;;9.52;70.90
25420;BME280;13354;48.174;11.566;2023-05-01T04:31:47;95421.03;;;9.59;70.69
25420;BME280;13354;48.174;11.566;2023-05-01T04:34:13;95420.59;;;9.56;70.97
25420;BME280;13354;48.174;11.566;2023-05-01T04:36:38;95420.59;;;9.56;71.09
25420;BME280;13354;48.174;11.566;2023-05-01T04:39:03;95420.59;;;9.56;70.99
25420;BME280;13354;48.174;11.566;2023-05-01T04:41:29;95421.63;;;9.55;71.16
25420;BME280;13354;48.174;11.566;2023-05-01T04:43:54;95411.91;;;9.62;70.94
25420;BME280;13354;48.174;11.566;2023-05-01T04:46:20;95416.75;;;9.58;71.09
25420;BME280;13354;48.174;11.566;2023-05-01T04:48:46;95416.75;;;9.58;71.12
25420;BME280;13354;48.174;11.566;2023-05-01T04:51:11;95416.38;;;9.61;71.19
25420;BME280;13354;48.174;11.566;2023-05-01T04:53:36;95416.81;;;9.65;71.06
25420;BME280;13354;48.174;11.566;2023-05-01T04:56:02;95419.31;;;9.73;70.75
25420;BME280;13354;48.174;11.566;2023-05-01T04:58:27;95415.06;;;9.79;70.81
25420;BME280;13354;48.174;11.566;2023-05-01T05:00:52;95417.09;;;9.77;70.78
25420;BME280;13354;48.174;11.566;2023-05-01T05:03:17;95416.50;;;9.81;71.21
25420;BME280;13354;48.174;11.566;2023-05-01T05:05:43;95422.44;;;9.83;70.98
25420;BME280;13354;48.174;11.566;2023-05-01T05:08:09;95420.25;;;9.93;70.74
25420;BME280;13354;48.174;11.566;2023-05-01T05:10:34;95418.41;;;9.94;70.51
25420;BME280;13354;48.174;11.566;2023-05-01T05:13:00;95419.47;;;10.00;70.51
25420;BME280;13354;48.174;11.566;2023-05-01T05:15:25;95415.69;;;10.09;70.65
25420;BME280;13354;48.174;11.566;2023-05-01T05:17:50;95414.44;;;10.11;70.23
25420;BME280;13354;48.174;11.566;2023-05-01T05:20:16;95415.31;;;10.19;70.15
25420;BME280;13354;48.174;11.566;2023-05-01T05:22:41;95421.31;;;10.34;69.29
25420;BME280;13354;48.174;11.566;2023-05-01T05:25:06;95420.75;;;10.38;68.88
25420;BME280;13354;48.174;11.566;2023-05-01T05:27:32;95418.47;;;10.35;68.32
25420;BME280;13354;48.174;11.566;2023-05-01T05:30:05;95421.16;;;10.49;67.36
25420;BME280;13354;48.174;11.566;2023-05-01T05:32:30;95425.47;;;10.56;67.55
25420;BME280;13354;48.174;11.566;2023-05-01T05:34:55;95432.41;;;10.64;66.44
25420;BME280;13354;48.174;11.566;2023-05-01T05:37:21;95424.28;;;10.59;66.94
25420;BME280;13354;48.174;11.566;2023-05-01T05:39:46;95432.84;;;10.61;67.25
25420;BME280;13354;48.174;11.566;2023-05-01T05:42:11;95427.56;;;10.74;66.54
25420;BME280;13354;48.174;11.566;2023-05-01T05:44:36;95429.78;;;10.64;67.25
25420;BME280;13354;48.174;11.566;2023-05-01T05:47:03;95437.72;;;10.57;67.39
25420;BME280;13354;48.174;11.566;2023-05-01T05:49:28;95434.28;;;10.70;67.26
25420;BME280;13354;48.174;11.566;2023-05-01T05:51:53;95432.69;;;10.76;67.15
25420;BME280;13354;48.174;11.566;2023-05-01T05:54:19;95433.25;;;10.71;67.15
25420;BME280;13354;48.174;11.566;2023-05-01T05:56:44;95437.38;;;10.80;66.70
25420;BME280;13354;48.174;11.566;2023-05-01T05:59:09;95447.41;;;10.92;66.32
25420;BME280;13354;48.174;11.566;2023-05-01T06:01:34;95444.31;;;10.81;66.54
25420;BME280;13354;48.174;11.566;2023-05-01T06:04:01;95441.88;;;10.93;65.22
25420;BME280;13354;48.174;11.566;2023-05-01T06:06:26;95431.91;;;10.95;65.27
25420;BME280;13354;48.174;11.566;2023-05-01T06:08:51;95429.06;;;10.97;65.59
25420;BME280;13354;48.174;11.566;2023-05-01T06:11:17;95438.66;;;10.98;65.37
25420;BME280;13354;48.174;11.566;2023-05-01T06:13:42;95435.38;;;10.96;65.71
25420;BME280;13354;48.174;11.566;2023-05-01T06:16:07;95428.25;;;10.96;65.35
25420;BME280;13354;48.174;11.566;2023-05-01T06:18:32;95431.91;;;10.95;66.23
25420;BME280;13354;48.174;11.566;2023-05-01T06:20:58;95426.63;;;10.95;65.75
25420;BME280;13354;48.174;11.566;2023-05-01T06:23:24;95425.22;;;10.99;65.42
25420;BME280;13354;48.174;11.566;2023-05-01T06:25:49;95426.88;;;11.20;65.09
25420;BME280;13354;48.174;11.566;2023-05-01T06:28:15;95423.63;;;11.25;64.41
25420;BME280;13354;48.174;11.566;2023-05-01T06:30:40;95424.84;;;11.29;64.02
25420;BME280;13354;48.174;11.566;2023-05-01T06:33:05;95424.84;;;11.29;63.81
25420;BME280;13354;48.174;11.566;2023-05-01T06:35:31;95430.34;;;11.34;63.58
25420;BME280;13354;48.174;11.566;2023-05-01T06:37:56;95429.75;;;11.39;63.23
25420;BME280;13354;48.174;11.566;2023-05-01T06:40:21;95423.22;;;11.48;63.53
25420;BME280;13354;48.174;11.566;2023-05-01T06:42:46;95427.09;;;11.58;63.64
25420;BME280;13354;48.174;11.566;2023-05-01T06:45:12;95421.81;;;11.65;63.04
25420;BME280;13354;48.174;11.566;2023-05-01T06:47:37;95430.56;;;11.79;62.83
25420;BME280;13354;48.174;11.566;2023-05-01T06:50:02;95429.75;;;11.72;62.92
25420;BME280;13354;48.174;11.566;2023-05-01T06:52:28;95429.75;;;11.72;62.53
25420;BME280;13354;48.174;11.566;2023-05-01T06:54:54;95430.56;;;11.85;62.16
25420;BME280;13354;48.174;11.566;2023-05-01T06:57:19;95430.97;;;11.82;62.24
25420;BME280;13354;48.174;11.566;2023-05-01T06:59:44;95436.69;;;11.79;62.81
25420;BME280;13354;48.174;11.566;2023-05-01T07:02:09;95443.44;;;11.89;61.88
25420;BME280;13354;48.174;11.566;2023-05-01T07:04:35;95438.53;;;11.92;61.96
25420;BME280;13354;48.174;11.566;2023-05-01T07:07:00;95436.91;;;11.98;62.36
25420;BME280;13354;48.174;11.566;2023-05-01T07:09:27;95437.28;;;12.15;62.33
25420;BME280;13354;48.174;11.566;2023-05-01T07:11:52;95437.66;;;12.25;61.64
25420;BME280;13354;48.174;11.566;2023-05-01T07:14:17;95438.44;;;12.45;60.75
25420;BME280;13354;48.174;11.566;2023-05-01T07:16:42;95430.72;;;12.37;61.76
25420;BME280;13354;48.174;11.566;2023-05-01T07:19:08;95431.28;;;12.39;61.71
25420;BME280;13354;48.174;11.566;2023-05-01T07:21:33;95432.75;;;12.28;62.44
25420;BME280;13354;48.174;11.566;2023-05-01T07:23:58;95434.19;;;12.31;62.03
25420;BME280;13354;48.174;11.566;2023-05-01T07:26:25;95433.53;;;12.42;60.65
25420;BME280;13354;48.174;11.566;2023-05-01T07:28:50;95424.50;;;12.56;60.08
25420;BME280;13354;48.174;11.566;2023-05-01T07:31:15;95432.47;;;12.56;60.38
25420;BME280;13354;48.174;11.566;2023-05-01T07:33:41;95431.41;;;12.64;60.31
25420;BME280;13354;48.174;11.566;2023-05-01T07:36:06;95424.44;;;12.70;60.05
25420;BME280;13354;48.174;11.566;2023-05-01T07:38:32;95425.00;;;12.85;58.92
25420;BME280;13354;48.174;11.566;2023-05-01T07:40:57;95433.03;;;12.72;59.22
25420;BME280;13354;48.174;11.566;2023-05-01T07:43:23;95444.44;;;12.79;59.05
25420;BME280;13354;48.174;11.566;2023-05-01T07:45:54;95436.19;;;12.94;58.48
25420;BME280;13354;48.174;11.566;2023-05-01T07:48:21;95435.56;;;12.92;60.00
25420;BME280;13354;48.174;11.566;2023-05-01T07:50:46;95436.44;;;13.17;62.18
25420;BME280;13354;48.174;11.566;2023-05-01T07:53:12;95431.53;;;13.27;59.68
25420;BME280;13354;48.174;11.566;2023-05-01T07:55:37;95434.25;;;13.46;58.85
25420;BME280;13354;48.174;11.566;2023-05-01T07:58:03;95433.59;;;13.50;59.97
25420;BME280;13354;48.174;11.566;2023-05-01T08:00:28;95438.53;;;13.47;58.71
25420;BME280;13354;48.174;11.566;2023-05-01T08:02:53;95444.16;;;13.32;58.33
25420;BME280;13354;48.174;11.566;2023-05-01T08:05:19;95448.09;;;13.29;59.15
25420;BME280;13354;48.174;11.566;2023-05-01T08:07:44;95447.22;;;13.36;58.10
25420;BME280;13354;48.174;11.566;2023-05-01T08:10:09;95452.19;;;13.25;58.02
25420;BME280;13354;48.174;11.566;2023-05-01T08:12:34;95450.75;;;13.23;58.06
25420;BME280;13354;48.174;11.566;2023-05-01T08:15:00;95448.28;;;13.28;58.59
25420;BME280;13354;48.174;11.566;2023-05-01T08:17:25;95448.16;;;13.10;58.22
25420;BME280;13354;48.174;11.566;2023-05-01T08:19:50;95455.31;;;13.09;58.84
25420;BME280;13354;48.174;11.566;2023-05-01T08:22:17;95453.00;;;13.19;59.59
25420;BME280;13354;48.174;11.566;2023-05-01T08:24:43;95461.84;;;13.13;59.94
25420;BME280;13354;48.174;11.566;2023-05-01T08:27:08;95461.19;;;13.24;59.09
25420;BME280;13354;48.174;11.566;2023-05-01T08:29:33;95453.22;;;13.18;59.54
25420;BME280;13354;48.174;11.566;2023-05-01T08:31:58;95465.13;;;13.09;59.91
25420;BME280;13354;48.174;11.566;2023-05-01T08:34:24;95457.44;;;12.94;59.24
25420;BME280;13354;48.174;11.566;2023-05-01T08:36:49;95467.25;;;12.93;59.58
25420;BME280;13354;48.174;11.566;2023-05-01T08:39:15;95463.53;;;13.01;59.55
25420;BME280;13354;48.174;11.566;2023-05-01T08:41:42;95471.66;;;12.68;60.97
25420;BME280;13354;48.174;11.566;2023-05-01T08:44:08;95474.31;;;12.61;61.91
25420;BME280;13354;48.174;11.566;2023-05-01T08:46:47;95473.25;;;12.75;61.74
25420;BME280;13354;48.174;11.566;2023-05-01T08:49:15;95475.47;;;12.85;61.39
25420;BME280;13354;48.174;11.566;2023-05-01T08:51:41;95481.00;;;12.77;62.45
25420;BME280;13354;48.174;11.566;2023-05-01T08:54:09;95475.50;;;12.78;62.11
25420;BME280;13354;48.174;11.566;2023-05-01T08:56:35;95477.84;;;12.48;63.60
25420;BME280;13354;48.174;11.566;2023-05-01T08:59:00;95476.59;;;12.51;63.95
25420;BME280;13354;48.174;11.566;2023-05-01T09:01:27;95479.88;;;12.53;64.05
25420;BME280;13354;48.174;11.566;2023-05-01T09:03:53;95485.97;;;12.60;64.42
25420;BME280;13354;48.174;11.566;2023-05-01T09:06:19;95482.31;;;12.54;64.53
25420;BME280;13354;48.174;11.566;2023-05-01T09:08:44;95480.91;;;12.52;65.15
25420;BME280;13354;48.174;11.566;2023-05-01T09:11:10;95486.00;;;12.53;65.27
25420;BME280;13354;48.174;11.566;2023-05-01T09:13:36;95484.97;;;12.48;65.43
25420;BME280;13354;48.174;11.566;2023-05-01T09:16:02;95490.69;;;12.51;66.05
25420;BME280;13354;48.174;11.566;2023-05-01T09:18:28;95497.91;;;12.31;67.62
25420;BME280;13354;48.174;11.566;2023-05-01T09:20:55;95492.56;;;12.38;67.31
25420;BME280;13354;48.174;11.566;2023-05-01T09:23:20;95496.44;;;12.35;67.89
25420;BME280;13354;48.174;11.566;2023-05-01T09:25:46;95497.50;;;12.07;69.33
25420;BME280;13354;48.174;11.566;2023-05-01T09:28:11;95499.34;;;12.07;70.72
25420;BME280;13354;48.174;11.566;2023-05-01T09:30:37;95501.00;;;12.08;71.58
25420;BME280;13354;48.174;11.566;2023-05-01T09:33:06;95501.81;;;12.08;72.39
25420;BME280;13354;48.174;11.566;2023-05-01T09:35:31;95503.22;;;12.18;72.65
25420;BME280;13354;48.174;11.566;2023-05-01T09:37:58;95499.34;;;12.14;73.77
25420;BME280;13354;48.174;11.566;2023-05-01T09:40:26;95502.63;;;12.02;75.02
25420;BME280;13354;48.174;11.566;2023-05-01T09:42:52;95508.31;;;12.06;75.84
25420;BME280;13354;48.174;11.566;2023-05-01T09:45:17;95508.94;;;11.95;76.17
25420;BME280;13354;48.174;11.566;2023-05-01T09:47:44;95501.19;;;12.06;76.28
25420;BME280;13354;48.174;11.566;2023-05-01T09:50:30;95499.16;;;12.02;77.54
25420;BME280;13354;48.174;11.566;2023-05-01T09:52:55;95503.66;;;12.08;77.57
25420;BME280;13354;48.174;11.566;2023-05-01T09:55:20;95511.16;;;12.11;77.32
25420;BME280;13354;48.174;11.566;2023-05-01T09:57:47;95507.50;;;12.05;77.55
25420;BME280;13354;48.174;11.566;2023-05-01T10:00:13;95518.75;;;11.94;78.80
25420;BME280;13354;48.174;11.566;2023-05-01T10:02:39;95517.94;;;11.94;80.82
25420;BME280;13354;48.174;11.566;2023-05-01T10:05:05;95509.72;;;11.75;81.40
25420;BME280;13354;48.174;11.566;2023-05-01T10:07:31;95515.47;;;11.85;81.69
25420;BME280;13354;48.174;11.566;2023-05-01T10:09:57;95519.09;;;11.78;81.24
25420;BME280;13354;48.174;11.566;2023-05-01T10:12:25;95512.97;;;11.77;81.81
25420;BME280;13354;48.174;11.566;2023-05-01T10:14:54;95521.94;;;11.56;83.09
25420;BME280;13354;48.174;11.566;2023-05-01T10:17:20;95515.41;;;11.59;82.27
25420;BME280;13354;48.174;11.566;2023-05-01T10:19:46;95521.94;;;11.50;82.92
25420;BME280;13354;48.174;11.566;2023-05-01T10:22:12;95515.19;;;11.47;82.96
25420;BME280;13354;48.174;11.566;2023-05-01T10:24:38;95518.66;;;11.48;83.96
25420;BME280;13354;48.174;11.566;2023-05-01T10:27:06;95524.19;;;11.46;82.18
25420;BME280;13354;48.174;11.566;2023-05-01T10:29:36;95520.72;;;11.46;83.03
25420;BME280;13354;48.174;11.566;2023-05-01T10:32:02;95524.81;;;11.61;82.69
25420;BME280;13354;48.174;11.566;2023-05-01T10:34:28;95517.84;;;11.47;83.77
25420;BME280;13354;48.174;11.566;2023-05-01T10:36:59;95516.41;;;11.38;85.60
25420;BME280;13354;48.174;11.566;2023-05-01T10:39:33;95518.44;;;11.43;85.48
25420;BME280;13354;48.174;11.566;2023-05-01T10:42:02;95513.75;;;11.38;84.88
25420;BME280;13354;48.174;11.566;2023-05-01T10:44:28;95515.59;;;11.44;84.96
25420;BME280;13354;48.174;11.566;2023-05-01T10:46:54;95518.63;;;11.41;85.91
25420;BME280;13354;48.174;11.566;2023-05-01T10:49:19;95513.75;;;11.45;85.90
25420;BME280;13354;48.174;11.566;2023-05-01T10:51:58;95506.81;;;11.44;86.89
25420;BME280;13354;48.174;11.566;2023-05-01T10:54:24;95509.69;;;11.42;87.32
25420;BME280;13354;48.174;11.566;2023-05-01T10:56:50;95506.41;;;11.40;87.00
25420;BME280;13354;48.174;11.566;2023-05-01T10:59:16;95505.59;;;11.40;86.64
25420;BME280;13354;48.174;11.566;2023-05-01T11:01:45;95499.25;;;11.27;86.93
25420;BME280;13354;48.174;11.566;2023-05-01T11:09:40;95499.66;;;11.24;90.08
25420;BME280;13354;48.174;11.566;2023-05-01T11:12:06;95485.41;;;11.32;91.30
25420;BME280;13354;48.174;11.566;2023-05-01T11:17:43;95486.47;;;11.57;88.52
25420;BME280;13354;48.174;11.566;2023-05-01T11:20:01;95488.69;;;11.54;89.32
25420;BME280;13354;48.174;11.566;2023-05-01T11:22:26;95485.03;;;11.61;88.86
25420;BME280;13354;48.174;11.566;2023-05-01T11:24:51;95490.34;;;11.68;87.89
25420;BME280;13354;48.174;11.566;2023-05-01T11:27:17;95487.50;;;11.56;87.76
25420;BME280;13354;48.174;11.566;2023-05-01T11:29:43;95490.75;;;11.58;88.86
25420;BME280;13354;48.174;11.566;2023-05-01T11:32:08;95489.72;;;11.53;89.87
25420;BME280;13354;48.174;11.566;2023-05-01T11:34:34;95480.34;;;11.70;88.60
25420;BME280;13354;48.174;11.566;2023-05-01T11:37:03;95482.81;;;11.72;87.50
25420;BME280;13354;48.174;11.566;2023-05-01T11:39:28;95477.09;;;11.68;86.88
25420;BME280;13354;48.174;11.566;2023-05-01T11:42:06;95475.84;;;11.71;87.50
25420;BME280;13354;48.174;11.566;2023-05-01T11:44:34;95480.75;;;11.67;88.11
25420;BME280;13354;48.174;11.566;2023-05-01T11:46:59;95480.16;;;11.72;89.31
25420;BME280;13354;48.174;11.566;2023-05-01T11:49:28;95481.56;;;11.81;89.17
25420;BME280;13354;48.174;11.566;2023-05-01T11:51:56;95478.31;;;11.92;89.18
25420;BME280;13354;48.174;11.566;2023-05-01T11:54:22;95477.09;;;11.88;89.58
25420;BME280;13354;48.174;11.566;2023-05-01T11:56:47;95481.19;;;11.91;89.40
25420;BME280;13354;48.174;11.566;2023-05-01T11:59:21;95483.22;;;12.08;89.42
25420;BME280;13354;48.174;11.566;2023-05-01T12:01:46;95477.91;;;11.89;90.88
25420;BME280;13354;48.174;11.566;2023-05-01T12:04:12;95482.41;;;11.95;92.81
25420;BME280;13354;48.174;11.566;2023-05-01T12:06:44;95484.03;;;11.96;92.72
25420;BME280;13354;48.174;11.566;2023-05-01T12:09:19;95487.09;;;12.06;92.85
25420;BME280;13354;48.174;11.566;2023-05-01T12:11:46;95484.16;;;12.47;91.60
25420;BME280;13354;48.174;11.566;2023-05-01T12:14:12;95482.53;;;12.40;89.05
25420;BME280;13354;48.174;11.566;2023-05-01T12:16:39;95484.78;;;12.49;87.91
25420;BME280;13354;48.174;11.566;2023-05-01T12:19:05;95491.31;;;12.53;88.60
25420;BME280;13354;48.174;11.566;2023-05-01T12:21:30;95496.63;;;12.53;89.90
25420;BME280;13354;48.174;11.566;2023-05-01T12:23:56;95488.88;;;12.52;90.86
25420;BME280;13354;48.174;11.566;2023-05-01T12:26:23;95485.78;;;12.55;89.90
25420;BME280;13354;48.174;11.566;2023-05-01T12:28:54;95494.78;;;12.47;91.07
25420;BME280;13354;48.174;11.566;2023-05-01T12:31:20;95481.06;;;12.64;88.62
25420;BME280;13354;48.174;11.566;2023-05-01T12:33:52;95491.88;;;12.62;89.09
25420;BME280;13354;48.174;11.566;2023-05-01T12:36:18;95487.19;;;12.71;88.57
25420;BME280;13354;48.174;11.566;2023-05-01T12:38:56;95489.38;;;12.80;87.37
25420;BME280;13354;48.174;11.566;2023-05-01T12:41:30;95485.09;;;12.73;87.54
25420;BME280;13354;48.174;11.566;2023-05-01T12:43:56;95484.03;;;12.87;88.59
25420;BME280;13354;48.174;11.566;2023-05-01T12:46:22;95479.53;;;12.88;87.70
25420;BME280;13354;48.174;11.566;2023-05-01T12:48:47;95478.44;;;13.09;86.73
25420;BME280;13354;48.174;11.566;2023-05-01T12:51:17;95478.59;;;13.14;86.81
25420;BME280;13354;48.174;11.566;2023-05-01T12:53:42;95482.03;;;13.27;85.33
25420;BME280;13354;48.174;11.566;2023-05-01T12:56:08;95484.03;;;13.32;82.28
25420;BME280;13354;48.174;11.566;2023-05-01T12:58:36;95487.88;;;13.43;81.95
25420;BME280;13354;48.174;11.566;2023-05-01T13:01:01;95481.16;;;13.40;82.48
25420;BME280;13354;48.174;11.566;2023-05-01T13:03:27;95484.69;;;13.27;82.80
25420;BME280;13354;48.174;11.566;2023-05-01T13:10:57;95484.41;;;13.42;80.38
25420;BME280;13354;48.174;11.566;2023-05-01T13:13:23;95482.47;;;13.56;78.94
25420;BME280;13354;48.174;11.566;2023-05-01T13:15:49;95495.41;;;13.46;78.80